Terminal Aerodrome Forecast
Issued by NWS

Current Version | Previous Version | Graphics & Text | Print | Product List | Glossary On
Versions: 1 2 3 4 5 6 7 8 9 10 11 12 13 14 15 16 17 18 19 20 21 22 23
000
FTUS41 KILN 291417 AAA
TAFLUK
TAF AMD
KLUK 291417Z 2914/3012 18006KT P6SM SCT060
     FM291600 21008KT P6SM VCSH BKN045
     FM300000 16003KT P6SM VCSH SCT045 OVC150=

USA.gov is the U.S. government's official web portal to all federal, state and local government web resources and services.